Time;durP1;ratioP1;P1;durP2;ratioP2;P2;SDS_P1;SDS_P2;PMS_P1;PMS_P2;Temp;Humidity;BMP_temperature;BMP_pressure;BME280_temperature;BME280_humidity;BME280_pressure;Samples;Min_cycle;Max_cycle;Signal;HPM_P1;HPM_P2
2021/01/08 00:01:20;;;;;;;41.08;15.20;;;;;;;-0.05;100.00;101097.28;5053491;28;20134;-80
2021/01/08 00:03:46;;;;;;;30.30;14.27;;;;;;;-0.02;100.00;101096.28;5066810;28;20075;-81
2021/01/08 00:06:11;;;;;;;52.30;17.58;;;;;;;-0.02;100.00;101099.72;5068297;28;20057;-80
2021/01/08 00:08:37;;;;;;;39.88;16.75;;;;;;;-0.05;100.00;101096.44;5071692;28;20045;-79
2021/01/08 00:11:03;;;;;;;29.45;12.15;;;;;;;-0.06;100.00;101095.63;5074210;28;20101;-79
2021/01/08 00:13:28;;;;;;;30.65;13.82;;;;;;;0.02;100.00;101102.16;5048966;28;20727;-78
2021/01/08 00:15:54;;;;;;;38.05;16.83;;;;;;;0.01;100.00;101108.22;5064347;28;20091;-79
2021/01/08 00:18:19;;;;;;;41.80;17.70;;;;;;;-0.06;100.00;101098.19;5060231;28;20040;-78
2021/01/08 00:20:45;;;;;;;38.30;16.58;;;;;;;-0.05;100.00;101104.19;5077951;28;20052;-82
2021/01/08 00:23:10;;;;;;;27.90;12.63;;;;;;;-0.02;100.00;101101.44;5075526;28;20058;-80
2021/01/08 00:25:36;;;;;;;41.80;16.75;;;;;;;-0.05;100.00;101105.00;5070265;28;20666;-80
2021/01/08 00:28:01;;;;;;;31.23;14.05;;;;;;;-0.05;100.00;101099.84;5053466;28;20065;-79
2021/01/08 00:30:27;;;;;;;21.17;11.07;;;;;;;-0.07;100.00;101098.25;5039357;28;20036;-78
2021/01/08 00:32:52;;;;;;;17.33;9.90;;;;;;;-0.10;100.00;101106.97;5053588;28;20268;-81
2021/01/08 00:35:18;;;;;;;17.98;10.52;;;;;;;-0.13;100.00;101109.69;5069473;28;20024;-80
2021/01/08 00:37:43;;;;;;;19.73;9.15;;;;;;;-0.16;100.00;101101.25;5046426;28;20091;-79
2021/01/08 00:40:09;;;;;;;16.95;7.32;;;;;;;-0.22;100.00;101103.19;5062813;28;20020;-75
2021/01/08 00:42:36;;;;;;;13.25;7.93;;;;;;;-0.20;100.00;101108.28;5071004;28;20024;-78
2021/01/08 00:45:04;;;;;;;11.77;7.15;;;;;;;-0.20;100.00;101108.28;5075951;28;20074;-79
2021/01/08 00:47:30;;;;;;;11.80;6.85;;;;;;;-0.23;100.00;101111.00;5057829;28;20040;-79
2021/01/08 00:49:55;;;;;;;11.82;7.53;;;;;;;-0.26;100.00;101113.72;5062153;28;20037;-80
2021/01/08 00:52:21;;;;;;;10.05;6.43;;;;;;;-0.34;100.00;101098.59;5042727;28;20052;-79
2021/01/08 00:54:48;;;;;;;12.65;7.00;;;;;;;-0.28;100.00;101112.97;5064932;28;20042;-79
2021/01/08 00:57:42;;;;;;;14.02;6.72;;;;;;;-0.32;100.00;101114.84;5052587;28;20037;-82
2021/01/08 01:00:08;;;;;;;10.43;6.60;;;;;;;-0.35;100.00;101114.13;5051880;28;20051;-80
2021/01/08 01:02:35;;;;;;;13.05;6.68;;;;;;;-0.34;100.00;101110.63;5071185;28;20425;-81
2021/01/08 01:05:01;;;;;;;7.95;5.03;;;;;;;-0.34;100.00;101115.78;5048844;28;20116;-81
2021/01/08 01:07:27;;;;;;;10.77;5.72;;;;;;;-0.34;100.00;101113.19;5062294;28;20044;-80
2021/01/08 01:09:52;;;;;;;8.23;5.55;;;;;;;-0.39;100.00;101116.00;5061086;28;20024;-77
2021/01/08 01:12:18;;;;;;;9.93;6.32;;;;;;;-0.36;100.00;101117.59;5061378;28;20039;-78
2021/01/08 01:14:44;;;;;;;9.30;6.10;;;;;;;-0.39;100.00;101118.56;5056818;28;20042;-76
2021/01/08 01:17:11;;;;;;;7.25;4.13;;;;;;;-0.41;100.00;101120.38;5065350;28;20085;-77
2021/01/08 01:19:37;;;;;;;11.48;6.13;;;;;;;-0.36;100.00;101122.75;5067447;28;20165;-78
2021/01/08 01:22:02;;;;;;;14.30;6.50;;;;;;;-0.47;100.00;101116.34;5050027;28;20590;-78
2021/01/08 01:24:28;;;;;;;19.98;7.13;;;;;;;-0.44;100.00;101123.09;5043495;28;20032;-77
2021/01/08 01:26:58;;;;;;;11.20;6.70;;;;;;;-0.50;100.00;101128.50;5087141;28;20032;-77
2021/01/08 01:29:24;;;;;;;11.90;6.30;;;;;;;-0.51;100.00;101127.69;5056257;28;20029;-77
2021/01/08 01:31:50;;;;;;;10.95;7.25;;;;;;;-0.50;100.00;101142.22;5075169;28;20042;-79
2021/01/08 01:34:16;;;;;;;11.52;7.30;;;;;;;-0.50;100.00;101129.34;5065289;28;20037;-76
2021/01/08 01:36:42;;;;;;;14.13;7.70;;;;;;;-0.50;100.00;101128.50;5072027;28;20024;-78
2021/01/08 01:39:07;;;;;;;11.05;7.32;;;;;;;-0.47;100.00;101136.94;5049240;28;20379;-78
2021/01/08 01:41:33;;;;;;;13.13;7.10;;;;;;;-0.49;100.00;101125.88;5016128;28;20071;-79
2021/01/08 01:43:59;;;;;;;10.13;6.53;;;;;;;-0.45;100.00;101139.47;5063146;28;20091;-79
2021/01/08 01:46:25;;;;;;;9.45;6.10;;;;;;;-0.49;100.00;101136.19;5044143;28;20104;-77
2021/01/08 01:48:51;;;;;;;8.60;6.28;;;;;;;-0.43;100.00;101141.06;5067141;28;20761;-79
2021/01/08 01:51:19;;;;;;;9.10;6.85;;;;;;;-0.38;99.83;101140.03;5064988;28;20032;-78
2021/01/08 01:53:45;;;;;;;10.00;6.32;;;;;;;-0.40;100.00;101147.81;5063846;28;20116;-80
2021/01/08 01:56:10;;;;;;;11.02;6.60;;;;;;;-0.26;99.76;101144.66;5063354;28;20108;-79
2021/01/08 01:58:36;;;;;;;11.90;7.10;;;;;;;-0.24;99.17;101148.00;5070897;28;20037;-80
2021/01/08 02:01:02;;;;;;;10.10;6.03;;;;;;;-0.36;99.59;101151.09;5051645;28;20094;-79
2021/01/08 02:03:36;;;;;;;10.18;7.22;;;;;;;-0.39;99.81;101154.66;5070867;28;20032;-79
2021/01/08 02:06:08;;;;;;;10.93;7.57;;;;;;;-0.36;99.84;101161.41;5049051;28;20123;-78
2021/01/08 02:08:37;;;;;;;7.25;5.38;;;;;;;-0.35;99.43;101156.19;5054864;28;20032;-79
2021/01/08 02:11:06;;;;;;;7.65;5.53;;;;;;;-0.28;99.10;101146.47;5068044;28;20044;-81
2021/01/08 02:13:52;;;;;;;7.45;5.40;;;;;;;-0.25;98.56;101156.63;5060740;28;20029;-80
2021/01/08 02:16:19;;;;;;;10.32;5.05;;;;;;;-0.29;98.67;101150.78;5060057;28;20033;-81
2021/01/08 02:18:47;;;;;;;7.38;5.47;;;;;;;-0.35;98.39;101157.94;5084279;28;20043;-80
2021/01/08 02:21:22;;;;;;;9.52;5.43;;;;;;;-0.35;98.80;101163.94;5073323;28;20040;-80
2021/01/08 02:24:04;;;;;;;9.60;5.60;;;;;;;-0.33;98.88;101161.28;5028233;28;20455;-80
2021/01/08 02:26:30;;;;;;;8.70;5.38;;;;;;;-0.43;98.83;101163.44;5056492;28;20032;-79
2021/01/08 02:28:56;;;;;;;9.23;5.32;;;;;;;-0.38;98.59;101166.63;5067311;28;20043;-79
2021/01/08 02:31:22;;;;;;;9.68;5.60;;;;;;;-0.52;99.04;101151.75;5057961;28;20068;-79
2021/01/08 02:33:48;;;;;;;9.65;5.72;;;;;;;-0.57;99.00;101158.84;5072291;28;20154;-80
2021/01/08 02:36:14;;;;;;;8.88;5.68;;;;;;;-0.60;99.45;101164.97;5042397;28;20438;-79
2021/01/08 02:38:40;;;;;;;9.98;5.43;;;;;;;-0.52;99.04;101163.81;5043335;28;20036;-81
2021/01/08 02:41:09;;;;;;;10.20;6.10;;;;;;;-0.61;99.31;101159.88;5061865;28;20499;-79
2021/01/08 02:43:34;;;;;;;10.50;5.82;;;;;;;-0.64;99.22;101160.84;5049728;28;20449;-79
2021/01/08 02:46:02;;;;;;;9.50;6.20;;;;;;;-0.63;99.41;101165.09;5024504;28;20029;-80
2021/01/08 02:48:28;;;;;;;12.13;6.07;;;;;;;-0.68;99.62;101159.31;5054409;28;20497;-79
2021/01/08 02:50:53;;;;;;;12.95;6.43;;;;;;;-0.67;99.31;101167.88;5062240;28;20049;-79
2021/01/08 02:53:22;;;;;;;11.27;7.05;;;;;;;-0.80;99.78;101158.06;5071507;28;20543;-80
2021/01/08 02:56:00;;;;;;;12.57;7.07;;;;;;;-0.74;99.76;101169.03;5074814;28;20489;-79
2021/01/08 02:58:28;;;;;;;11.02;7.32;;;;;;;-0.80;99.84;101168.38;5060128;28;20029;-81
2021/01/08 03:00:55;;;;;;;10.15;6.75;;;;;;;-0.84;99.98;101150.53;5050749;28;20072;-80
2021/01/08 03:03:23;;;;;;;11.20;6.63;;;;;;;-0.84;100.00;101163.41;5048973;28;20461;-80
2021/01/08 03:05:49;;;;;;;15.77;7.18;;;;;;;-0.88;100.00;101169.59;5054431;28;20106;-81
2021/01/08 03:08:15;;;;;;;13.48;7.00;;;;;;;-0.89;100.00;101175.63;5078211;28;20028;-79
2021/01/08 03:10:41;;;;;;;12.40;7.72;;;;;;;-0.93;99.94;101174.91;5074016;28;20044;-80
2021/01/08 03:13:09;;;;;;;9.00;6.40;;;;;;;-0.87;100.00;101178.97;5061604;28;20037;-80
2021/01/08 03:15:34;;;;;;;14.63;8.15;;;;;;;-0.89;100.00;101188.50;5060939;28;20024;-80
2021/01/08 03:18:00;;;;;;;13.88;8.50;;;;;;;-0.90;100.00;101181.72;5082509;28;20043;-78
2021/01/08 03:20:26;;;;;;;12.73;8.27;;;;;;;-0.88;100.00;101188.47;5092357;28;20044;-79
2021/01/08 03:22:51;;;;;;;16.90;7.40;;;;;;;-0.95;100.00;101174.16;5075720;28;20040;-81
2021/01/08 03:25:17;;;;;;;13.48;7.55;;;;;;;-0.81;100.00;101183.88;5078764;28;20041;-81
2021/01/08 03:27:43;;;;;;;13.55;7.13;;;;;;;-0.84;100.00;101190.00;5052641;28;20090;-76
2021/01/08 03:30:09;;;;;;;15.55;8.82;;;;;;;-0.89;100.00;101176.47;5053827;28;20037;-80
2021/01/08 03:32:35;;;;;;;14.65;7.95;;;;;;;-0.86;100.00;101185.81;5053256;28;20048;-82
2021/01/08 03:35:01;;;;;;;13.13;8.50;;;;;;;-0.88;100.00;101178.16;5055463;28;20040;-79
2021/01/08 03:37:28;;;;;;;16.75;9.57;;;;;;;-0.84;100.00;101184.84;5052037;28;20033;-79
2021/01/08 03:39:53;;;;;;;19.38;9.88;;;;;;;-0.86;100.00;101184.09;5061696;28;20471;-79
2021/01/08 03:42:19;;;;;;;12.60;8.20;;;;;;;-0.90;100.00;101174.81;5053683;28;20087;-80
2021/01/08 03:44:44;;;;;;;13.32;8.55;;;;;;;-0.90;100.00;101176.56;5019508;28;20453;-79
2021/01/08 03:47:10;;;;;;;13.52;8.35;;;;;;;-0.89;100.00;101173.88;5067425;28;20119;-77
2021/01/08 03:49:38;;;;;;;16.17;8.80;;;;;;;-0.81;100.00;101189.88;5068519;28;20064;-81
2021/01/08 03:52:07;;;;;;;21.17;9.48;;;;;;;-0.82;100.00;101182.22;5035032;28;20041;-81
2021/01/08 03:54:34;;;;;;;14.95;8.20;;;;;;;-0.85;100.00;101190.06;5051674;28;20392;-82
2021/01/08 03:57:00;;;;;;;13.38;8.07;;;;;;;-0.86;100.00;101183.25;5052505;28;20039;-79
2021/01/08 03:59:25;;;;;;;13.68;8.48;;;;;;;-0.89;100.00;101191.09;5040361;28;20418;-79
2021/01/08 04:01:52;;;;;;;11.85;7.68;;;;;;;-0.90;100.00;101182.53;5066594;28;20036;-80
2021/01/08 04:04:18;;;;;;;19.10;10.05;;;;;;;-0.89;100.00;101191.91;5037957;28;20422;-80
2021/01/08 04:06:43;;;;;;;15.75;9.43;;;;;;;-0.93;100.00;101179.25;5035948;28;20041;-80
2021/01/08 04:09:09;;;;;;;14.35;8.43;;;;;;;-0.89;100.00;101185.94;5051886;28;20029;-79
2021/01/08 04:11:35;;;;;;;14.27;8.63;;;;;;;-0.89;100.00;101185.94;5075051;28;20048;-81
2021/01/08 04:14:00;;;;;;;14.48;9.02;;;;;;;-0.83;100.00;101178.81;5053605;28;20541;-79
2021/01/08 04:16:34;;;;;;;14.40;8.15;;;;;;;-0.87;100.00;101187.53;5072783;28;20058;-79
2021/01/08 04:19:00;;;;;;;15.55;8.98;;;;;;;-0.93;100.00;101174.91;5069746;28;20155;-79
2021/01/08 04:21:25;;;;;;;14.30;8.65;;;;;;;-0.81;100.00;101181.31;5067162;28;20032;-80
2021/01/08 04:23:51;;;;;;;15.75;9.30;;;;;;;-0.84;100.00;101189.19;5065767;28;20083;-76
2021/01/08 04:26:16;;;;;;;17.00;9.23;;;;;;;-0.89;100.00;101188.50;5063821;28;20123;-79
2021/01/08 04:28:42;;;;;;;20.65;10.70;;;;;;;-0.88;100.00;101185.06;5085799;28;20036;-78
2021/01/08 04:31:07;;;;;;;16.55;9.20;;;;;;;-0.88;100.00;101185.88;5055404;28;20040;-80
2021/01/08 04:33:33;;;;;;;22.40;10.02;;;;;;;-0.90;100.00;101182.53;5071104;28;20037;-78
2021/01/08 04:35:58;;;;;;;18.55;9.57;;;;;;;-0.87;100.00;101194.44;5068645;28;20044;-80
2021/01/08 04:38:24;;;;;;;21.05;10.55;;;;;;;-0.90;100.00;101198.00;5051280;28;20052;-81
2021/01/08 04:40:49;;;;;;;21.17;9.75;;;;;;;-0.83;100.00;101191.69;5065738;28;20064;-79
2021/01/08 04:43:15;;;;;;;20.02;10.10;;;;;;;-0.86;100.00;101196.97;5034157;28;20071;-79
2021/01/08 04:45:40;;;;;;;16.25;8.75;;;;;;;-0.79;100.00;101200.13;5058188;28;20040;-80
2021/01/08 04:48:07;;;;;;;23.20;10.45;;;;;;;-0.81;100.00;101189.88;5052306;28;20039;-78
2021/01/08 04:50:33;;;;;;;25.33;9.32;;;;;;;-0.81;100.00;101202.78;5058700;28;20085;-77
2021/01/08 04:52:59;;;;;;;20.58;10.10;;;;;;;-0.80;100.00;101203.59;5069671;28;20032;-79
2021/01/08 04:55:26;;;;;;;18.27;9.75;;;;;;;-0.69;100.00;101206.56;5064640;28;20035;-79
2021/01/08 04:57:53;;;;;;;17.95;9.55;;;;;;;-0.75;100.00;101200.81;5071932;28;20040;-78
2021/01/08 05:00:19;;;;;;;15.73;8.25;;;;;;;-0.75;100.00;101198.25;5051078;28;20551;-79
2021/01/08 05:02:45;;;;;;;16.73;10.20;;;;;;;-0.71;100.00;101204.97;5044486;28;20033;-81
2021/01/08 05:05:12;;;;;;;19.08;10.65;;;;;;;-0.74;100.00;101200.78;5045191;28;20083;-78
2021/01/08 05:07:38;;;;;;;26.55;10.98;;;;;;;-0.82;100.00;101197.69;5038971;28;20470;-81
2021/01/08 05:10:04;;;;;;;20.58;10.77;;;;;;;-0.75;100.00;101198.25;5066869;28;20040;-79
2021/01/08 05:12:41;;;;;;;19.40;9.45;;;;;;;-0.74;99.83;101200.78;5070562;28;20025;-77
2021/01/08 05:15:11;;;;;;;16.35;9.43;;;;;;;-0.74;100.00;101211.06;5066966;28;20497;-78
2021/01/08 05:17:39;;;;;;;17.77;9.38;;;;;;;-0.83;100.00;101209.72;5045786;28;20040;-78
2021/01/08 05:20:05;;;;;;;22.15;11.35;;;;;;;-0.77;100.00;101212.94;5067870;28;20051;-78
2021/01/08 05:22:31;;;;;;;19.52;10.43;;;;;;;-0.80;100.00;101216.47;5072162;28;20033;-78
2021/01/08 05:25:10;;;;;;;24.05;10.95;;;;;;;-0.76;100.00;101209.47;5084348;28;20647;-79
2021/01/08 05:27:36;;;;;;;19.98;10.82;;;;;;;-0.70;100.00;101220.34;5046659;28;20078;-79
2021/01/08 05:30:25;;;;;;;24.35;11.20;;;;;;;-0.71;100.00;101229.00;5040384;28;20087;-78
2021/01/08 05:32:59;;;;;;;23.33;11.43;;;;;;;-0.68;100.00;101225.44;5057331;28;20045;-77
2021/01/08 05:35:26;;;;;;;25.50;11.73;;;;;;;-0.71;100.00;101229.00;5020187;28;20490;-79
2021/01/08 05:37:54;;;;;;;23.88;11.85;;;;;;;-0.64;100.00;101230.41;5042127;28;20489;-78
2021/01/08 05:40:27;;;;;;;26.50;12.88;;;;;;;-0.66;100.00;101239.97;5075754;28;20074;-79
2021/01/08 05:42:56;;;;;;;31.20;12.82;;;;;;;-0.70;99.91;101234.97;5048393;28;20033;-79
2021/01/08 05:45:23;;;;;;;27.98;12.30;;;;;;;-0.72;100.00;101235.03;5054984;28;20029;-79
2021/01/08 05:47:51;;;;;;;32.70;13.43;;;;;;;-0.68;100.00;101234.03;5051556;28;20105;-79
2021/01/08 05:50:20;;;;;;;31.20;14.18;;;;;;;-0.73;100.00;101235.94;5051787;28;20634;-78
2021/01/08 05:52:49;;;;;;;31.30;13.93;;;;;;;-0.72;100.00;101232.44;5047152;28;20074;-82
2021/01/08 05:55:14;;;;;;;26.50;13.07;;;;;;;-0.77;100.00;101230.97;5049976;28;20041;-79
2021/01/08 05:57:41;;;;;;;26.67;13.48;;;;;;;-0.71;100.00;101239.28;5052935;28;20043;-79
2021/01/08 06:00:08;;;;;;;25.80;13.05;;;;;;;-0.67;100.00;101225.38;5048263;28;20036;-81
2021/01/08 06:02:34;;;;;;;25.92;13.82;;;;;;;-0.62;100.00;101238.94;5013809;28;20047;-79
2021/01/08 06:05:00;;;;;;;24.10;13.20;;;;;;;-0.72;99.75;101247.09;5053773;28;20041;-79
2021/01/08 06:07:29;;;;;;;27.02;12.82;;;;;;;-0.73;99.91;101246.25;5047163;28;20106;-78
2021/01/08 06:10:02;;;;;;;29.45;12.60;;;;;;;-0.74;99.82;101249.72;5047222;28;20490;-79
2021/01/08 06:12:34;;;;;;;26.48;12.60;;;;;;;-0.80;99.69;101250.78;5053946;28;20140;-79
2021/01/08 06:15:00;;;;;;;23.17;12.15;;;;;;;-0.80;99.86;101240.50;5065599;28;20036;-77
2021/01/08 06:17:27;;;;;;;27.40;13.60;;;;;;;-0.76;99.70;101254.09;5052170;28;20036;-78
2021/01/08 06:20:01;;;;;;;26.90;12.80;;;;;;;-0.68;99.78;101249.50;5080045;28;20390;-78
2021/01/08 06:22:35;;;;;;;27.60;12.10;;;;;;;-0.71;100.00;101249.59;5051276;28;20210;-79
2021/01/08 06:25:00;;;;;;;32.10;14.13;;;;;;;-0.75;99.89;101250.63;5031179;28;20127;-77
2021/01/08 06:27:32;;;;;;;29.13;13.00;;;;;;;-0.73;100.00;101255.72;5062449;28;20037;-79
2021/01/08 06:30:00;;;;;;;27.80;12.27;;;;;;;-0.68;99.90;101254.66;5054683;28;20082;-79
2021/01/08 06:32:30;;;;;;;31.60;13.63;;;;;;;-0.68;100.00;101254.66;5086102;28;20111;-79
2021/01/08 06:35:07;;;;;;;33.97;13.98;;;;;;;-0.67;99.99;101247.75;5037283;28;20144;-79
2021/01/08 06:37:41;;;;;;;32.80;12.65;;;;;;;-0.68;100.00;101249.50;5084994;28;20096;-79
2021/01/08 06:40:12;;;;;;;31.80;13.68;;;;;;;-0.65;100.00;101248.50;5076981;28;20033;-78
2021/01/08 06:42:44;;;;;;;29.55;12.57;;;;;;;-0.60;100.00;101252.59;5065578;28;20078;-78
2021/01/08 06:45:15;;;;;;;;;;;;;;;-0.59;100.00;101261.16;5063333;28;20118;-79
2021/01/08 06:47:46;;;;;;;36.40;14.00;;;;;;;-0.50;100.00;101259.94;5036848;28;19928;-80
2021/01/08 06:50:17;;;;;;;29.55;14.25;;;;;;;-0.51;100.00;101271.13;5030651;28;20041;-80
2021/01/08 06:52:45;;;;;;;31.00;14.68;;;;;;;-0.52;100.00;101262.56;5043893;28;20041;-82
2021/01/08 06:55:18;;;;;;;32.53;14.13;;;;;;;-0.51;100.00;101272.00;5052171;28;20121;-80
2021/01/08 06:57:50;;;;;;;33.13;15.02;;;;;;;-0.49;100.00;101267.63;5050312;28;20410;-80
2021/01/08 07:00:20;;;;;;;31.25;14.48;;;;;;;-0.45;100.00;101269.16;5080406;28;20115;-80
2021/01/08 07:02:49;;;;;;;35.55;15.55;;;;;;;-0.50;100.00;101273.66;5051587;28;20479;-80
2021/01/08 07:05:19;;;;;;;32.45;15.13;;;;;;;-0.44;100.00;101270.00;5051097;28;20077;-80
2021/01/08 07:07:46;;;;;;;30.85;15.60;;;;;;;-0.40;100.00;101279.28;5054504;28;20040;-80
2021/01/08 07:10:15;;;;;;;31.15;15.50;;;;;;;-0.45;100.00;101281.22;5051092;28;20040;-79
2021/01/08 07:12:42;;;;;;;37.67;15.98;;;;;;;-0.41;100.00;101291.31;5043037;28;20425;-79
2021/01/08 07:15:09;;;;;;;31.85;16.02;;;;;;;-0.40;100.00;101289.59;5049356;28;20135;-80
2021/01/08 07:17:35;;;;;;;34.08;16.13;;;;;;;-0.33;100.00;101297.91;5029619;28;20033;-80
2021/01/08 07:20:04;;;;;;;34.38;15.38;;;;;;;-0.35;100.00;101292.81;5060081;28;20111;-79
2021/01/08 07:22:38;;;;;;;33.15;15.52;;;;;;;-0.30;99.87;101303.78;5068692;28;20492;-78
2021/01/08 07:25:06;;;;;;;39.92;17.13;;;;;;;-0.33;100.00;101305.66;5091844;28;20038;-76
2021/01/08 07:27:33;;;;;;;30.52;15.30;;;;;;;-0.32;99.94;101308.16;5092357;28;20039;-78
2021/01/08 07:30:00;;;;;;;30.45;15.60;;;;;;;-0.32;100.00;101313.31;5077684;28;20094;-78
2021/01/08 07:32:33;;;;;;;23.83;13.02;;;;;;;-0.30;100.00;101320.97;5073915;28;20060;-79
2021/01/08 07:34:59;;;;;;;35.58;16.25;;;;;;;-0.31;100.00;101315.00;5056448;28;20040;-78
2021/01/08 07:38:02;;;;;;;44.08;17.83;;;;;;;-0.21;99.76;101320.59;5053910;28;20052;-79
2021/01/08 07:40:35;;;;;;;35.88;16.02;;;;;;;-0.31;100.00;101321.88;5059660;28;20079;-79
2021/01/08 07:43:04;;;;;;;;;;;;;;;-0.31;100.00;101324.47;5076079;28;20040;-79
2021/01/08 07:45:56;;;;;;;36.38;16.60;;;;;;;-0.24;99.67;101324.16;5064906;28;19927;-78
2021/01/08 07:48:38;;;;;;;35.60;17.42;;;;;;;-0.31;100.00;101327.88;5057995;28;20112;-79
2021/01/08 07:51:05;;;;;;;34.95;16.15;;;;;;;-0.22;100.00;101331.84;5074818;28;20043;-80
2021/01/08 07:53:47;;;;;;;36.53;17.67;;;;;;;-0.24;100.00;101333.63;5073905;28;20032;-78
2021/01/08 07:56:18;;;;;;;29.48;15.65;;;;;;;-0.17;100.00;101334.22;5073148;28;20039;-80
2021/01/08 07:58:46;;;;;;;33.15;16.13;;;;;;;-0.15;100.00;101329.81;5057357;28;20453;-78
2021/01/08 08:01:15;;;;;;;32.85;17.70;;;;;;;-0.18;99.19;101335.13;5057273;28;20036;-80
2021/01/08 08:03:41;;;;;;;33.92;17.30;;;;;;;-0.14;99.34;101336.69;5081024;28;20036;-79
2021/01/08 08:06:08;;;;;;;32.30;17.27;;;;;;;-0.12;99.70;101346.00;5055699;28;20066;-80
2021/01/08 08:08:40;;;;;;;32.53;16.45;;;;;;;-0.13;99.91;101346.06;5051427;28;20033;-81
2021/01/08 08:11:19;;;;;;;34.37;17.20;;;;;;;-0.09;99.59;101357.97;5054105;28;20025;-80
2021/01/08 08:13:45;;;;;;;33.65;15.48;;;;;;;-0.14;100.00;101347.81;5054078;28;20049;-80
2021/01/08 08:16:11;;;;;;;32.83;16.17;;;;;;;-0.13;99.95;101354.66;5047981;28;20794;-79
2021/01/08 08:18:53;;;;;;;30.70;17.05;;;;;;;-0.02;99.72;101355.06;5072611;28;20046;-81
2021/01/08 08:21:19;;;;;;;37.10;17.35;;;;;;;-0.04;100.00;101362.03;5057514;28;20024;-77
2021/01/08 08:23:55;;;;;;;30.77;16.20;;;;;;;0.02;98.84;101365.25;5048845;28;20093;-79
2021/01/08 08:26:21;;;;;;;32.70;16.83;;;;;;;0.03;99.60;101361.78;5032600;28;20120;-80
2021/01/08 08:29:01;;;;;;;37.47;17.02;;;;;;;0.05;99.69;101362.53;5033085;28;20045;-80
2021/01/08 08:31:29;;;;;;;36.05;18.00;;;;;;;0.12;99.42;101369.13;5031813;28;20438;-79
2021/01/08 08:33:56;;;;;;;37.42;18.65;;;;;;;0.10;99.59;101360.63;5046450;28;20036;-79
2021/01/08 08:36:25;;;;;;;37.72;18.23;;;;;;;0.08;99.69;101375.31;5050535;28;20041;-78
2021/01/08 08:39:07;;;;;;;35.65;18.40;;;;;;;0.14;99.95;101375.88;5076539;28;20040;-78
2021/01/08 08:41:35;;;;;;;33.05;17.50;;;;;;;0.09;99.17;101374.41;5066933;28;20063;-78
2021/01/08 08:44:07;;;;;;;37.00;18.27;;;;;;;0.13;99.56;101387.13;5062728;28;20044;-79
2021/01/08 08:46:52;;;;;;;32.80;17.05;;;;;;;0.26;98.52;101379.69;5034756;28;20487;-78
2021/01/08 08:49:34;;;;;;;38.80;17.90;;;;;;;0.24;98.80;101388.41;5061453;28;20127;-80
2021/01/08 08:52:01;;;;;;;31.98;16.48;;;;;;;0.25;98.82;101388.34;5067992;28;20035;-79
2021/01/08 08:54:27;;;;;;;38.50;18.88;;;;;;;0.26;99.16;101384.03;5051058;28;20040;-78
2021/01/08 08:56:57;;;;;;;35.38;17.90;;;;;;;0.29;99.12;101391.66;5064626;28;20033;-80
2021/01/08 08:59:45;;;;;;;33.25;16.92;;;;;;;0.31;98.09;101398.41;5049920;28;20055;-78
2021/01/08 09:02:25;;;;;;;35.55;17.13;;;;;;;0.31;98.66;101395.81;5056128;28;20040;-78
2021/01/08 09:04:52;;;;;;;25.27;14.48;;;;;;;0.31;98.10;101405.31;5070718;28;20080;-79
2021/01/08 09:07:25;;;;;;;32.33;16.83;;;;;;;0.34;98.13;101400.88;5064693;28;20048;-79
2021/01/08 09:09:58;;;;;;;31.20;15.85;;;;;;;0.35;98.03;101406.88;5072655;28;20070;-79
2021/01/08 09:12:40;;;;;;;32.17;17.13;;;;;;;0.37;98.78;101402.47;5067039;28;20566;-80
2021/01/08 09:15:17;;;;;;;25.25;15.63;;;;;;;0.33;97.57;101409.50;5068607;28;20036;-78
2021/01/08 09:17:46;;;;;;;27.20;16.00;;;;;;;0.35;97.97;101419.75;5068484;28;20568;-79
2021/01/08 09:20:16;;;;;;;27.90;16.08;;;;;;;0.38;97.67;101411.91;5068042;28;20302;-79
2021/01/08 09:22:42;;;;;;;25.13;14.63;;;;;;;0.33;97.87;101412.09;5080260;28;20063;-78
2021/01/08 09:25:09;;;;;;;28.27;14.88;;;;;;;0.35;98.09;101412.03;5014582;28;20033;-77
2021/01/08 09:27:36;;;;;;;26.33;16.17;;;;;;;0.36;98.10;101418.88;5036832;28;20040;-78
2021/01/08 09:30:12;;;;;;;32.17;17.65;;;;;;;0.36;98.11;101417.13;5078565;28;20094;-78
2021/01/08 09:32:38;;;;;;;30.60;15.98;;;;;;;0.33;97.99;101414.66;5079449;28;20036;-78
2021/01/08 09:35:08;;;;;;;29.33;16.23;;;;;;;0.39;98.57;101421.31;5050995;28;20063;-78
2021/01/08 09:37:39;;;;;;;31.33;17.23;;;;;;;0.41;98.11;101423.84;5047989;28;20036;-78
2021/01/08 09:40:13;;;;;;;29.67;16.60;;;;;;;0.45;98.19;101422.78;5086446;28;20032;-79
2021/01/08 09:42:39;;;;;;;30.05;15.82;;;;;;;0.39;97.43;101426.47;5046451;28;20041;-78
2021/01/08 09:45:18;;;;;;;29.85;15.00;;;;;;;0.43;97.48;101425.44;5050858;28;20123;-80
2021/01/08 09:47:43;;;;;;;29.27;15.50;;;;;;;0.47;97.66;101418.41;5046889;28;20051;-78
2021/01/08 09:50:09;;;;;;;29.67;15.93;;;;;;;0.38;97.34;101424.81;5055805;28;20449;-76
2021/01/08 09:52:35;;;;;;;27.40;16.17;;;;;;;0.36;97.52;101419.72;5066737;28;20147;-79
2021/01/08 09:55:02;;;;;;;30.23;16.67;;;;;;;0.50;98.12;101426.84;5069129;28;20096;-79
2021/01/08 09:57:33;;;;;;;29.38;15.52;;;;;;;0.46;97.79;101419.31;5067098;28;20541;-78
2021/01/08 10:00:00;;;;;;;32.10;16.98;;;;;;;0.36;98.04;101426.63;5038516;28;20029;-77
2021/01/08 10:02:35;;;;;;;26.73;15.15;;;;;;;0.34;97.97;101423.22;5060798;28;20040;-79
2021/01/08 10:05:00;;;;;;;29.48;15.85;;;;;;;0.34;97.84;101418.94;5067239;28;20029;-81
2021/01/08 10:07:38;;;;;;;26.98;15.57;;;;;;;0.35;98.24;101428.34;5069659;28;20029;-80
2021/01/08 10:10:04;;;;;;;31.35;16.15;;;;;;;0.30;98.12;101429.44;5063654;28;20036;-80
2021/01/08 10:12:30;;;;;;;34.05;16.73;;;;;;;0.25;97.72;101423.66;5052380;28;20219;-81
2021/01/08 10:14:58;;;;;;;31.83;16.33;;;;;;;0.29;97.93;101425.19;5054038;28;20037;-83
2021/01/08 10:17:24;;;;;;;26.08;14.55;;;;;;;0.39;97.99;101429.88;5060534;28;20043;-81
2021/01/08 10:19:50;;;;;;;28.70;15.75;;;;;;;0.36;98.51;101426.63;5072019;28;20033;-81
2021/01/08 10:22:19;;;;;;;29.95;16.02;;;;;;;0.36;97.26;101424.03;5079283;22;20049;-77
2021/01/08 10:24:45;;;;;;;30.80;15.75;;;;;;;0.39;98.63;101429.88;5003746;28;20172;-80
2021/01/08 10:27:11;;;;;;;30.17;16.17;;;;;;;0.33;98.84;101421.56;5029712;28;20125;-79
2021/01/08 10:29:40;;;;;;;27.33;15.60;;;;;;;0.42;98.12;101425.53;4996456;28;20052;-78
2021/01/08 10:32:13;;;;;;;33.17;16.10;;;;;;;0.34;98.55;101428.41;5013384;28;20184;-76
2021/01/08 10:34:43;;;;;;;28.40;14.98;;;;;;;0.27;98.87;101424.41;5031160;28;20117;-76
2021/01/08 10:37:16;;;;;;;28.60;14.25;;;;;;;0.29;97.66;101428.59;5015578;28;20536;-76
2021/01/08 10:39:43;;;;;;;35.25;17.13;;;;;;;0.26;98.66;101431.28;4999158;28;20068;-77
2021/01/08 10:42:10;;;;;;;27.52;16.33;;;;;;;0.29;98.27;101433.75;5031491;28;20044;-76
2021/01/08 10:44:36;;;;;;;29.73;14.50;;;;;;;0.27;98.57;101430.41;5015008;28;20040;-76
2021/01/08 10:47:01;;;;;;;41.38;16.85;;;;;;;0.34;98.82;101433.56;4995505;28;20029;-77
2021/01/08 10:49:27;;;;;;;29.70;14.50;;;;;;;0.45;98.16;101428.78;5016749;28;20041;-77
2021/01/08 10:51:52;;;;;;;31.88;16.13;;;;;;;0.39;98.36;101441.97;5015397;28;20034;-77
2021/01/08 10:54:18;;;;;;;24.13;15.18;;;;;;;0.33;97.79;101430.16;5013919;28;20037;-76
2021/01/08 10:56:44;;;;;;;38.75;15.98;;;;;;;0.39;98.15;101431.63;5003861;28;20045;-77
2021/01/08 10:59:12;;;;;;;37.10;16.67;;;;;;;0.33;98.46;101430.16;4998833;28;20049;-76
2021/01/08 11:01:40;;;;;;;29.15;16.10;;;;;;;0.36;98.65;101434.38;4999917;28;20057;-77
2021/01/08 11:04:05;;;;;;;28.38;16.17;;;;;;;0.38;98.08;101435.13;5016611;28;20033;-76
2021/01/08 11:06:31;;;;;;;29.77;16.20;;;;;;;0.29;98.44;101430.34;4998644;28;20049;-75
2021/01/08 11:08:56;;;;;;;28.05;16.38;;;;;;;0.36;98.48;101444.69;5006740;28;20048;-77
2021/01/08 11:11:22;;;;;;;32.92;16.10;;;;;;;0.30;97.91;101438.03;5015240;28;20091;-78
2021/01/08 11:13:48;;;;;;;30.30;15.85;;;;;;;0.23;98.45;101433.16;5008625;28;20061;-77
2021/01/08 11:16:13;;;;;;;29.25;16.33;;;;;;;0.30;98.51;101435.47;5015519;28;20066;-77
2021/01/08 11:18:39;;;;;;;30.45;17.15;;;;;;;0.27;98.43;101433.00;5015053;28;20073;-78